sensor_id;sensor_type;location;lat;lon;timestamp;P1;P2;P0
80861;PMS5003;71798;54.942;73.444;2024-01-11T00:02:19;18.00;15.00;10.00
80861;PMS5003;71798;54.942;73.444;2024-01-11T00:04:45;30.00;24.00;15.00
80861;PMS5003;71798;54.942;73.444;2024-01-11T00:07:12;28.00;24.00;14.00
80861;PMS5003;71798;54.942;73.444;2024-01-11T00:09:39;26.75;22.00;14.00
80861;PMS5003;71798;54.942;73.444;2024-01-11T00:12:05;22.00;18.00;11.00
80861;PMS5003;71798;54.942;73.444;2024-01-11T00:14:31;25.00;20.50;11.25
80861;PMS5003;71798;54.942;73.444;2024-01-11T00:16:57;26.00;21.00;12.00
80861;PMS5003;71798;54.942;73.444;2024-01-11T00:19:23;25.00;20.00;12.00
80861;PMS5003;71798;54.942;73.444;2024-01-11T00:21:50;23.00;20.00;11.00
80861;PMS5003;71798;54.942;73.444;2024-01-11T00:24:16;29.25;23.00;13.00
80861;PMS5003;71798;54.942;73.444;2024-01-11T00:26:42;26.50;22.00;12.00
80861;PMS5003;71798;54.942;73.444;2024-01-11T00:29:08;24.00;21.00;13.00
80861;PMS5003;71798;54.942;73.444;2024-01-11T00:31:34;32.50;26.75;16.00
80861;PMS5003;71798;54.942;73.444;2024-01-11T00:34:01;24.00;21.00;12.00
80861;PMS5003;71798;54.942;73.444;2024-01-11T00:36:27;31.25;26.25;17.50
80861;PMS5003;71798;54.942;73.444;2024-01-11T00:38:54;21.00;15.25;8.75
80861;PMS5003;71798;54.942;73.444;2024-01-11T00:42:24;23.50;20.00;13.00
80861;PMS5003;71798;54.942;73.444;2024-01-11T00:45:55;21.00;18.00;12.00
80861;PMS5003;71798;54.942;73.444;2024-01-11T00:49:26;25.00;21.50;13.00
80861;PMS5003;71798;54.942;73.444;2024-01-11T00:56:33;22.00;20.00;11.00
80861;PMS5003;71798;54.942;73.444;2024-01-11T01:03:40;24.00;19.75;12.00
80861;PMS5003;71798;54.942;73.444;2024-01-11T01:10:47;17.50;15.00;9.00
80861;PMS5003;71798;54.942;73.444;2024-01-11T01:17:54;29.00;24.00;16.00
80861;PMS5003;71798;54.942;73.444;2024-01-11T01:21:25;23.00;18.50;10.25
80861;PMS5003;71798;54.942;73.444;2024-01-11T01:28:32;25.25;18.00;11.00
80861;PMS5003;71798;54.942;73.444;2024-01-11T01:35:38;27.50;23.00;14.25
80861;PMS5003;71798;54.942;73.444;2024-01-11T01:39:09;24.50;20.00;11.75
80861;PMS5003;71798;54.942;73.444;2024-01-11T01:42:44;37.50;29.75;18.00
80861;PMS5003;71798;54.942;73.444;2024-01-11T01:46:15;25.00;21.75;13.00
80861;PMS5003;71798;54.942;73.444;2024-01-11T01:49:45;30.25;25.25;16.00
80861;PMS5003;71798;54.942;73.444;2024-01-11T01:53:19;46.25;35.75;21.50
80861;PMS5003;71798;54.942;73.444;2024-01-11T01:56:51;51.00;39.75;23.00
80861;PMS5003;71798;54.942;73.444;2024-01-11T02:00:22;28.50;24.75;13.50
80861;PMS5003;71798;54.942;73.444;2024-01-11T02:07:29;25.50;21.50;11.00
80861;PMS5003;71798;54.942;73.444;2024-01-11T02:14:39;21.50;19.50;11.25
80861;PMS5003;71798;54.942;73.444;2024-01-11T02:18:06;23.25;20.50;12.00
80861;PMS5003;71798;54.942;73.444;2024-01-11T02:21:38;24.50;20.50;11.25
80861;PMS5003;71798;54.942;73.444;2024-01-11T02:25:08;37.50;30.50;19.50
80861;PMS5003;71798;54.942;73.444;2024-01-11T02:28:43;40.25;32.00;19.00
80861;PMS5003;71798;54.942;73.444;2024-01-11T02:32:10;26.75;21.25;13.00
80861;PMS5003;71798;54.942;73.444;2024-01-11T02:35:41;33.00;27.00;16.00
80861;PMS5003;71798;54.942;73.444;2024-01-11T02:39:13;49.25;38.50;23.25
80861;PMS5003;71798;54.942;73.444;2024-01-11T02:42:43;35.00;28.00;17.25
80861;PMS5003;71798;54.942;73.444;2024-01-11T02:49:51;41.50;33.25;20.00
80861;PMS5003;71798;54.942;73.444;2024-01-11T02:56:58;38.75;30.00;16.25
80861;PMS5003;71798;54.942;73.444;2024-01-11T03:04:05;32.50;24.75;14.25
80861;PMS5003;71798;54.942;73.444;2024-01-11T03:07:36;37.00;29.00;16.75
80861;PMS5003;71798;54.942;73.444;2024-01-11T03:11:06;18.75;16.25;9.25
80861;PMS5003;71798;54.942;73.444;2024-01-11T03:14:39;29.50;25.00;17.00
80861;PMS5003;71798;54.942;73.444;2024-01-11T03:18:10;38.25;28.75;18.00
80861;PMS5003;71798;54.942;73.444;2024-01-11T03:21:45;27.00;21.00;12.00
80861;PMS5003;71798;54.942;73.444;2024-01-11T03:25:15;35.25;28.00;17.00
80861;PMS5003;71798;54.942;73.444;2024-01-11T03:28:46;35.75;28.50;17.00
80861;PMS5003;71798;54.942;73.444;2024-01-11T03:32:17;22.75;19.00;11.00
80861;PMS5003;71798;54.942;73.444;2024-01-11T03:35:48;34.00;27.00;15.00
80861;PMS5003;71798;54.942;73.444;2024-01-11T03:42:55;30.00;23.00;12.00
80861;PMS5003;71798;54.942;73.444;2024-01-11T03:46:27;33.00;27.00;16.75
80861;PMS5003;71798;54.942;73.444;2024-01-11T03:49:57;37.00;30.25;20.00
80861;PMS5003;71798;54.942;73.444;2024-01-11T03:53:28;32.50;27.25;17.00
80861;PMS5003;71798;54.942;73.444;2024-01-11T03:56:59;20.25;18.00;12.00
80861;PMS5003;71798;54.942;73.444;2024-01-11T04:04:06;28.00;24.00;12.50
80861;PMS5003;71798;54.942;73.444;2024-01-11T04:07:37;32.50;26.50;16.25
80861;PMS5003;71798;54.942;73.444;2024-01-11T04:11:08;21.50;18.50;11.50
80861;PMS5003;71798;54.942;73.444;2024-01-11T04:14:39;26.50;22.00;14.00
80861;PMS5003;71798;54.942;73.444;2024-01-11T04:40:55;29.25;24.00;13.00
80861;PMS5003;71798;54.942;73.444;2024-01-11T04:43:21;34.00;26.00;16.00
80861;PMS5003;71798;54.942;73.444;2024-01-11T04:46:17;53.75;42.25;26.00
80861;PMS5003;71798;54.942;73.444;2024-01-11T04:48:43;46.25;35.00;20.50
80861;PMS5003;71798;54.942;73.444;2024-01-11T04:51:10;40.75;32.00;19.00
80861;PMS5003;71798;54.942;73.444;2024-01-11T04:53:37;42.00;33.00;21.00
80861;PMS5003;71798;54.942;73.444;2024-01-11T04:56:04;43.75;35.00;21.00
80861;PMS5003;71798;54.942;73.444;2024-01-11T04:58:30;41.00;33.00;19.25
80861;PMS5003;71798;54.942;73.444;2024-01-11T05:00:56;50.00;40.00;24.00
80861;PMS5003;71798;54.942;73.444;2024-01-11T05:03:22;53.50;42.50;26.25
80861;PMS5003;71798;54.942;73.444;2024-01-11T05:05:48;59.25;46.25;28.50
80861;PMS5003;71798;54.942;73.444;2024-01-11T05:08:34;38.00;30.00;18.00
80861;PMS5003;71798;54.942;73.444;2024-01-11T05:11:01;32.00;26.00;15.00
80861;PMS5003;71798;54.942;73.444;2024-01-11T05:13:27;33.00;28.00;17.00
80861;PMS5003;71798;54.942;73.444;2024-01-11T05:15:53;36.00;27.75;17.00
80861;PMS5003;71798;54.942;73.444;2024-01-11T05:18:19;41.75;32.75;19.00
80861;PMS5003;71798;54.942;73.444;2024-01-11T05:20:46;39.75;30.75;17.50
80861;PMS5003;71798;54.942;73.444;2024-01-11T05:23:12;51.00;40.00;24.00
80861;PMS5003;71798;54.942;73.444;2024-01-11T05:25:38;39.50;31.75;19.50
80861;PMS5003;71798;54.942;73.444;2024-01-11T05:28:04;42.75;33.25;19.00
80861;PMS5003;71798;54.942;73.444;2024-01-11T05:30:34;39.00;32.00;20.00
80861;PMS5003;71798;54.942;73.444;2024-01-11T05:33:00;30.00;25.00;14.25
80861;PMS5003;71798;54.942;73.444;2024-01-11T05:35:26;35.50;27.00;16.00
80861;PMS5003;71798;54.942;73.444;2024-01-11T05:37:55;26.25;21.00;11.00
80861;PMS5003;71798;54.942;73.444;2024-01-11T05:40:21;38.00;31.25;19.00
80861;PMS5003;71798;54.942;73.444;2024-01-11T05:42:54;40.00;31.50;19.00
80861;PMS5003;71798;54.942;73.444;2024-01-11T05:45:21;34.25;27.00;17.00
80861;PMS5003;71798;54.942;73.444;2024-01-11T05:47:47;27.75;23.50;14.75
80861;PMS5003;71798;54.942;73.444;2024-01-11T05:50:13;42.50;34.00;21.50
80861;PMS5003;71798;54.942;73.444;2024-01-11T05:52:39;41.00;32.75;19.75
80861;PMS5003;71798;54.942;73.444;2024-01-11T05:55:05;30.00;24.00;15.00
80861;PMS5003;71798;54.942;73.444;2024-01-11T05:57:31;28.00;24.00;13.75
80861;PMS5003;71798;54.942;73.444;2024-01-11T05:59:58;25.25;20.75;11.25
80861;PMS5003;71798;54.942;73.444;2024-01-11T06:02:24;25.50;21.25;13.50
80861;PMS5003;71798;54.942;73.444;2024-01-11T06:04:50;30.50;25.00;15.75
80861;PMS5003;71798;54.942;73.444;2024-01-11T06:07:16;31.75;25.00;15.00
80861;PMS5003;71798;54.942;73.444;2024-01-11T06:09:42;28.25;23.00;12.50
80861;PMS5003;71798;54.942;73.444;2024-01-11T06:12:09;31.50;25.00;16.00
80861;PMS5003;71798;54.942;73.444;2024-01-11T06:14:47;32.25;26.00;17.00
80861;PMS5003;71798;54.942;73.444;2024-01-11T06:17:13;29.00;24.00;13.00
80861;PMS5003;71798;54.942;73.444;2024-01-11T06:19:39;29.25;24.25;14.75
80861;PMS5003;71798;54.942;73.444;2024-01-11T06:22:05;18.75;15.00;9.00
80861;PMS5003;71798;54.942;73.444;2024-01-11T06:24:31;34.50;28.75;18.00
80861;PMS5003;71798;54.942;73.444;2024-01-11T06:26:58;36.00;29.25;17.75
80861;PMS5003;71798;54.942;73.444;2024-01-11T06:29:24;19.00;15.75;8.25
80861;PMS5003;71798;54.942;73.444;2024-01-11T06:31:50;35.00;28.00;18.00
80861;PMS5003;71798;54.942;73.444;2024-01-11T06:34:16;30.25;26.00;15.50
80861;PMS5003;71798;54.942;73.444;2024-01-11T06:36:42;32.00;26.00;15.00
80861;PMS5003;71798;54.942;73.444;2024-01-11T06:39:08;27.25;22.25;13.00
80861;PMS5003;71798;54.942;73.444;2024-01-11T06:41:35;28.25;24.00;14.25
80861;PMS5003;71798;54.942;73.444;2024-01-11T06:44:10;24.25;19.75;11.00
80861;PMS5003;71798;54.942;73.444;2024-01-11T06:46:36;28.00;23.75;14.00
80861;PMS5003;71798;54.942;73.444;2024-01-11T06:49:05;14.00;12.50;6.25
80861;PMS5003;71798;54.942;73.444;2024-01-11T06:51:31;29.50;24.00;15.00
80861;PMS5003;71798;54.942;73.444;2024-01-11T06:53:57;22.00;18.00;11.25
80861;PMS5003;71798;54.942;73.444;2024-01-11T06:56:25;32.00;26.75;16.00
80861;PMS5003;71798;54.942;73.444;2024-01-11T06:58:51;26.00;21.00;13.00
80861;PMS5003;71798;54.942;73.444;2024-01-11T07:01:18;33.00;28.00;17.25
80861;PMS5003;71798;54.942;73.444;2024-01-11T07:03:44;32.50;25.25;14.75
80861;PMS5003;71798;54.942;73.444;2024-01-11T07:06:10;30.00;24.00;13.75
80861;PMS5003;71798;54.942;73.444;2024-01-11T07:08:36;48.00;39.00;26.00
80861;PMS5003;71798;54.942;73.444;2024-01-11T07:11:09;37.75;29.50;17.25
80861;PMS5003;71798;54.942;73.444;2024-01-11T07:13:35;29.00;23.00;14.00
80861;PMS5003;71798;54.942;73.444;2024-01-11T07:16:01;28.00;22.00;13.00
80861;PMS5003;71798;54.942;73.444;2024-01-11T07:18:29;26.00;21.00;12.00
80861;PMS5003;71798;54.942;73.444;2024-01-11T07:20:56;28.75;23.75;13.75
80861;PMS5003;71798;54.942;73.444;2024-01-11T07:23:22;21.00;18.00;9.75
80861;PMS5003;71798;54.942;73.444;2024-01-11T07:25:49;30.00;24.00;14.00
80861;PMS5003;71798;54.942;73.444;2024-01-11T07:28:15;33.00;27.00;16.00
80861;PMS5003;71798;54.942;73.444;2024-01-11T07:30:43;40.00;31.00;17.00
80861;PMS5003;71798;54.942;73.444;2024-01-11T07:33:10;26.75;23.00;13.00
80861;PMS5003;71798;54.942;73.444;2024-01-11T07:35:36;32.50;26.75;15.50
80861;PMS5003;71798;54.942;73.444;2024-01-11T07:38:02;29.25;25.00;15.00
80861;PMS5003;71798;54.942;73.444;2024-01-11T07:40:29;38.00;30.00;18.75
80861;PMS5003;71798;54.942;73.444;2024-01-11T07:42:55;35.00;26.00;16.75
80861;PMS5003;71798;54.942;73.444;2024-01-11T07:45:21;37.50;30.75;18.00
80861;PMS5003;71798;54.942;73.444;2024-01-11T07:47:47;38.00;31.25;18.50
80861;PMS5003;71798;54.942;73.444;2024-01-11T07:50:14;23.75;20.25;12.50
80861;PMS5003;71798;54.942;73.444;2024-01-11T07:52:40;26.25;22.25;14.00
80861;PMS5003;71798;54.942;73.444;2024-01-11T07:55:09;30.75;25.50;16.00
80861;PMS5003;71798;54.942;73.444;2024-01-11T07:57:42;27.00;23.25;14.25
80861;PMS5003;71798;54.942;73.444;2024-01-11T08:00:08;29.75;24.25;14.25
80861;PMS5003;71798;54.942;73.444;2024-01-11T08:02:40;37.75;30.75;19.00
80861;PMS5003;71798;54.942;73.444;2024-01-11T08:05:06;38.25;31.00;18.00
80861;PMS5003;71798;54.942;73.444;2024-01-11T08:07:32;33.00;27.00;16.00
80861;PMS5003;71798;54.942;73.444;2024-01-11T08:09:58;33.00;27.25;16.50
80861;PMS5003;71798;54.942;73.444;2024-01-11T08:12:25;43.25;34.75;21.50
80861;PMS5003;71798;54.942;73.444;2024-01-11T08:14:51;35.75;27.00;17.25
80861;PMS5003;71798;54.942;73.444;2024-01-11T08:17:18;28.50;24.75;15.75
80861;PMS5003;71798;54.942;73.444;2024-01-11T08:19:45;24.00;21.00;13.00
80861;PMS5003;71798;54.942;73.444;2024-01-11T08:22:11;36.75;29.75;17.00
80861;PMS5003;71798;54.942;73.444;2024-01-11T08:25:42;26.50;21.00;12.25
80861;PMS5003;71798;54.942;73.444;2024-01-11T08:28:08;38.00;30.00;17.00
80861;PMS5003;71798;54.942;73.444;2024-01-11T08:30:34;29.00;24.00;16.00
80861;PMS5003;71798;54.942;73.444;2024-01-11T08:33:00;31.75;27.00;17.00
80861;PMS5003;71798;54.942;73.444;2024-01-11T08:35:26;32.75;25.50;14.25
80861;PMS5003;71798;54.942;73.444;2024-01-11T08:37:53;39.25;32.50;19.50
80861;PMS5003;71798;54.942;73.444;2024-01-11T08:40:19;30.00;25.00;14.00
80861;PMS5003;71798;54.942;73.444;2024-01-11T08:42:45;32.00;27.25;16.00
80861;PMS5003;71798;54.942;73.444;2024-01-11T08:45:11;27.00;22.00;12.25
80861;PMS5003;71798;54.942;73.444;2024-01-11T08:47:44;17.00;14.75;8.00
80861;PMS5003;71798;54.942;73.444;2024-01-11T08:50:13;32.75;26.00;16.00
80861;PMS5003;71798;54.942;73.444;2024-01-11T08:52:41;37.00;29.00;17.00
80861;PMS5003;71798;54.942;73.444;2024-01-11T08:55:07;26.25;21.50;11.50
80861;PMS5003;71798;54.942;73.444;2024-01-11T08:57:34;28.75;24.00;14.00
80861;PMS5003;71798;54.942;73.444;2024-01-11T09:00:03;34.00;28.00;18.00
80861;PMS5003;71798;54.942;73.444;2024-01-11T09:02:30;18.00;15.00;9.00
80861;PMS5003;71798;54.942;73.444;2024-01-11T09:04:56;29.50;23.25;14.00
80861;PMS5003;71798;54.942;73.444;2024-01-11T09:07:22;33.25;28.00;16.50
80861;PMS5003;71798;54.942;73.444;2024-01-11T09:09:48;29.00;23.50;13.00
80861;PMS5003;71798;54.942;73.444;2024-01-11T09:12:14;29.00;24.00;15.00
80861;PMS5003;71798;54.942;73.444;2024-01-11T09:14:40;33.00;27.00;17.00
80861;PMS5003;71798;54.942;73.444;2024-01-11T09:17:06;23.00;17.00;10.00
80861;PMS5003;71798;54.942;73.444;2024-01-11T09:19:34;30.75;25.75;16.00
80861;PMS5003;71798;54.942;73.444;2024-01-11T09:22:00;34.00;26.00;17.00
80861;PMS5003;71798;54.942;73.444;2024-01-11T09:24:26;37.00;29.00;19.00
80861;PMS5003;71798;54.942;73.444;2024-01-11T09:26:52;32.00;25.75;15.25
80861;PMS5003;71798;54.942;73.444;2024-01-11T09:29:18;43.25;34.75;22.00
80861;PMS5003;71798;54.942;73.444;2024-01-11T09:31:44;39.00;31.00;19.00
80861;PMS5003;71798;54.942;73.444;2024-01-11T09:34:10;24.00;20.00;12.00
80861;PMS5003;71798;54.942;73.444;2024-01-11T09:36:36;22.50;19.75;12.00
80861;PMS5003;71798;54.942;73.444;2024-01-11T09:39:05;24.25;20.00;13.00
80861;PMS5003;71798;54.942;73.444;2024-01-11T09:41:31;24.25;20.75;13.00
80861;PMS5003;71798;54.942;73.444;2024-01-11T09:43:58;28.25;23.25;13.00
80861;PMS5003;71798;54.942;73.444;2024-01-11T09:46:26;30.00;23.00;13.00
80861;PMS5003;71798;54.942;73.444;2024-01-11T09:48:58;35.00;27.00;16.00
80861;PMS5003;71798;54.942;73.444;2024-01-11T09:51:24;31.50;26.25;15.25
80861;PMS5003;71798;54.942;73.444;2024-01-11T09:53:51;37.75;30.50;19.00
80861;PMS5003;71798;54.942;73.444;2024-01-11T09:56:20;37.25;29.00;18.00
80861;PMS5003;71798;54.942;73.444;2024-01-11T09:58:51;46.00;37.75;23.50
80861;PMS5003;71798;54.942;73.444;2024-01-11T10:01:17;41.25;33.00;20.00
80861;PMS5003;71798;54.942;73.444;2024-01-11T10:03:43;52.75;42.00;26.00
80861;PMS5003;71798;54.942;73.444;2024-01-11T10:06:11;42.00;32.25;19.50
80861;PMS5003;71798;54.942;73.444;2024-01-11T10:08:38;40.75;34.00;21.75
80861;PMS5003;71798;54.942;73.444;2024-01-11T10:11:04;35.00;28.00;17.00
80861;PMS5003;71798;54.942;73.444;2024-01-11T10:13:30;45.25;36.00;22.00
80861;PMS5003;71798;54.942;73.444;2024-01-11T10:16:06;34.75;27.50;17.00
80861;PMS5003;71798;54.942;73.444;2024-01-11T10:18:33;47.75;38.00;23.75
80861;PMS5003;71798;54.942;73.444;2024-01-11T10:21:00;60.00;46.00;28.00
80861;PMS5003;71798;54.942;73.444;2024-01-11T10:23:26;48.25;38.50;23.75
80861;PMS5003;71798;54.942;73.444;2024-01-11T10:25:57;50.50;40.75;24.50
80861;PMS5003;71798;54.942;73.444;2024-01-11T10:28:25;60.00;46.00;27.50
80861;PMS5003;71798;54.942;73.444;2024-01-11T10:30:51;42.75;33.25;19.00
80861;PMS5003;71798;54.942;73.444;2024-01-11T10:33:20;30.00;24.25;15.00
80861;PMS5003;71798;54.942;73.444;2024-01-11T10:35:52;46.75;36.50;21.00
80861;PMS5003;71798;54.942;73.444;2024-01-11T10:38:19;30.00;24.00;16.00
80861;PMS5003;71798;54.942;73.444;2024-01-11T10:40:47;36.00;28.00;16.00
80861;PMS5003;71798;54.942;73.444;2024-01-11T10:43:15;26.00;23.00;12.00
80861;PMS5003;71798;54.942;73.444;2024-01-11T10:45:43;40.25;32.75;20.25
80861;PMS5003;71798;54.942;73.444;2024-01-11T10:48:14;42.00;34.00;21.00
80861;PMS5003;71798;54.942;73.444;2024-01-11T10:50:45;41.00;31.00;18.00
80861;PMS5003;71798;54.942;73.444;2024-01-11T10:55:56;42.00;32.00;18.00
80861;PMS5003;71798;54.942;73.444;2024-01-11T10:58:25;38.00;30.50;17.00
80861;PMS5003;71798;54.942;73.444;2024-01-11T11:00:53;42.00;33.25;19.25
80861;PMS5003;71798;54.942;73.444;2024-01-11T11:03:20;41.00;33.00;19.25
80861;PMS5003;71798;54.942;73.444;2024-01-11T11:05:48;37.00;30.00;19.00
80861;PMS5003;71798;54.942;73.444;2024-01-11T11:08:16;44.75;34.25;20.00
80861;PMS5003;71798;54.942;73.444;2024-01-11T11:10:43;48.25;37.25;22.25
80861;PMS5003;71798;54.942;73.444;2024-01-11T11:13:11;45.00;34.00;21.50
80861;PMS5003;71798;54.942;73.444;2024-01-11T11:15:38;46.50;37.50;22.75
80861;PMS5003;71798;54.942;73.444;2024-01-11T11:18:04;51.00;40.75;24.00
80861;PMS5003;71798;54.942;73.444;2024-01-11T11:20:31;34.00;28.00;17.25
80861;PMS5003;71798;54.942;73.444;2024-01-11T11:23:04;28.00;24.00;14.00
80861;PMS5003;71798;54.942;73.444;2024-01-11T11:25:33;55.25;43.00;26.00
80861;PMS5003;71798;54.942;73.444;2024-01-11T11:27:59;45.25;36.00;22.50
80861;PMS5003;71798;54.942;73.444;2024-01-11T11:30:32;30.75;25.50;16.50
80861;PMS5003;71798;54.942;73.444;2024-01-11T11:33:07;42.50;33.00;20.50
80861;PMS5003;71798;54.942;73.444;2024-01-11T11:35:48;37.00;31.00;19.25
80861;PMS5003;71798;54.942;73.444;2024-01-11T11:38:18;44.50;34.50;20.75
80861;PMS5003;71798;54.942;73.444;2024-01-11T11:40:46;41.50;34.00;21.00
80861;PMS5003;71798;54.942;73.444;2024-01-11T11:43:17;34.00;27.25;16.50
80861;PMS5003;71798;54.942;73.444;2024-01-11T11:45:44;44.25;36.00;20.00
80861;PMS5003;71798;54.942;73.444;2024-01-11T11:51:01;46.50;37.50;22.75
80861;PMS5003;71798;54.942;73.444;2024-01-11T11:53:30;46.25;36.25;22.00
80861;PMS5003;71798;54.942;73.444;2024-01-11T11:55:56;45.00;34.50;21.50
80861;PMS5003;71798;54.942;73.444;2024-01-11T11:58:22;51.00;40.00;24.00
80861;PMS5003;71798;54.942;73.444;2024-01-11T12:00:48;46.00;37.00;22.00
80861;PMS5003;71798;54.942;73.444;2024-01-11T12:03:15;36.25;30.00;18.00
80861;PMS5003;71798;54.942;73.444;2024-01-11T12:05:42;35.00;28.00;17.00
80861;PMS5003;71798;54.942;73.444;2024-01-11T12:08:10;35.50;27.25;16.00
80861;PMS5003;71798;54.942;73.444;2024-01-11T12:10:36;57.00;45.00;27.00
80861;PMS5003;71798;54.942;73.444;2024-01-11T12:13:03;45.00;35.50;20.75
80861;PMS5003;71798;54.942;73.444;2024-01-11T12:15:30;53.75;41.50;24.00
80861;PMS5003;71798;54.942;73.444;2024-01-11T12:17:59;51.75;39.75;22.00
80861;PMS5003;71798;54.942;73.444;2024-01-11T12:20:25;53.00;41.00;24.00
80861;PMS5003;71798;54.942;73.444;2024-01-11T12:22:51;68.25;52.00;32.00
80861;PMS5003;71798;54.942;73.444;2024-01-11T12:25:17;60.00;45.00;25.50
80861;PMS5003;71798;54.942;73.444;2024-01-11T12:27:44;71.25;55.25;32.25
80861;PMS5003;71798;54.942;73.444;2024-01-11T12:30:11;49.50;39.00;22.50
80861;PMS5003;71798;54.942;73.444;2024-01-11T12:32:40;70.75;53.75;31.50
80861;PMS5003;71798;54.942;73.444;2024-01-11T12:35:06;66.00;50.00;27.25
80861;PMS5003;71798;54.942;73.444;2024-01-11T12:37:54;66.00;49.75;29.00
80861;PMS5003;71798;54.942;73.444;2024-01-11T12:40:31;52.00;40.25;24.00
80861;PMS5003;71798;54.942;73.444;2024-01-11T12:42:57;62.00;48.00;27.25
80861;PMS5003;71798;54.942;73.444;2024-01-11T12:45:25;51.25;40.00;24.25
80861;PMS5003;71798;54.942;73.444;2024-01-11T12:47:52;52.50;39.00;22.75
80861;PMS5003;71798;54.942;73.444;2024-01-11T12:50:20;41.00;32.25;19.00
80861;PMS5003;71798;54.942;73.444;2024-01-11T12:52:46;41.25;32.75;19.50
80861;PMS5003;71798;54.942;73.444;2024-01-11T12:55:20;35.50;29.00;18.50
80861;PMS5003;71798;54.942;73.444;2024-01-11T12:57:46;62.75;48.00;29.00
80861;PMS5003;71798;54.942;73.444;2024-01-11T13:00:13;49.00;38.25;23.00
80861;PMS5003;71798;54.942;73.444;2024-01-11T13:02:39;66.50;50.50;29.25
80861;PMS5003;71798;54.942;73.444;2024-01-11T13:05:06;74.00;57.00;31.00
80861;PMS5003;71798;54.942;73.444;2024-01-11T13:07:33;83.25;67.50;36.75
80861;PMS5003;71798;54.942;73.444;2024-01-11T13:10:22;76.50;61.25;34.75
80861;PMS5003;71798;54.942;73.444;2024-01-11T13:12:53;60.25;46.00;27.25
80861;PMS5003;71798;54.942;73.444;2024-01-11T13:15:20;52.75;41.50;23.25
80861;PMS5003;71798;54.942;73.444;2024-01-11T13:17:47;59.00;45.00;27.00
80861;PMS5003;71798;54.942;73.444;2024-01-11T13:20:13;51.00;40.00;22.00
80861;PMS5003;71798;54.942;73.444;2024-01-11T13:22:39;49.00;39.50;24.75
80861;PMS5003;71798;54.942;73.444;2024-01-11T13:25:05;47.00;36.00;21.00
80861;PMS5003;71798;54.942;73.444;2024-01-11T13:27:31;62.25;47.25;28.50
80861;PMS5003;71798;54.942;73.444;2024-01-11T13:29:57;68.00;52.00;31.00
80861;PMS5003;71798;54.942;73.444;2024-01-11T13:32:24;62.75;48.00;27.75
80861;PMS5003;71798;54.942;73.444;2024-01-11T13:34:50;52.00;42.50;24.25
80861;PMS5003;71798;54.942;73.444;2024-01-11T13:37:19;67.00;51.00;31.00
80861;PMS5003;71798;54.942;73.444;2024-01-11T13:39:46;72.75;55.25;31.00
80861;PMS5003;71798;54.942;73.444;2024-01-11T13:42:29;68.25;51.25;31.25
80861;PMS5003;71798;54.942;73.444;2024-01-11T13:44:55;115.50;97.75;54.75
80861;PMS5003;71798;54.942;73.444;2024-01-11T13:47:21;85.25;71.00;40.00
80861;PMS5003;71798;54.942;73.444;2024-01-11T13:49:48;83.00;67.50;39.75
80861;PMS5003;71798;54.942;73.444;2024-01-11T13:52:14;67.75;51.50;31.00
80861;PMS5003;71798;54.942;73.444;2024-01-11T13:54:40;71.00;56.00;33.00
80861;PMS5003;71798;54.942;73.444;2024-01-11T13:57:06;69.00;52.00;30.00
80861;PMS5003;71798;54.942;73.444;2024-01-11T13:59:32;76.75;59.50;33.00
80861;PMS5003;71798;54.942;73.444;2024-01-11T14:02:19;90.00;76.00;43.00
80861;PMS5003;71798;54.942;73.444;2024-01-11T14:04:45;84.75;68.00;38.75
80861;PMS5003;71798;54.942;73.444;2024-01-11T14:07:11;60.00;47.00;28.75
80861;PMS5003;71798;54.942;73.444;2024-01-11T14:09:37;70.00;51.00;29.00
80861;PMS5003;71798;54.942;73.444;2024-01-11T14:12:03;73.50;56.50;33.00
80861;PMS5003;71798;54.942;73.444;2024-01-11T14:14:30;75.25;61.00;33.25
80861;PMS5003;71798;54.942;73.444;2024-01-11T14:16:56;65.00;48.00;26.00
80861;PMS5003;71798;54.942;73.444;2024-01-11T14:19:22;81.00;62.00;35.00
80861;PMS5003;71798;54.942;73.444;2024-01-11T14:21:48;104.00;84.50;44.75
80861;PMS5003;71798;54.942;73.444;2024-01-11T14:24:15;99.75;78.75;43.75
80861;PMS5003;71798;54.942;73.444;2024-01-11T14:26:41;71.00;55.00;32.50
80861;PMS5003;71798;54.942;73.444;2024-01-11T14:29:09;98.75;82.25;51.00
80861;PMS5003;71798;54.942;73.444;2024-01-11T14:31:36;71.50;53.75;31.75
80861;PMS5003;71798;54.942;73.444;2024-01-11T14:34:03;70.25;53.75;31.75
80861;PMS5003;71798;54.942;73.444;2024-01-11T14:36:29;51.50;41.00;24.75
80861;PMS5003;71798;54.942;73.444;2024-01-11T14:38:56;56.50;42.25;25.50
80861;PMS5003;71798;54.942;73.444;2024-01-11T14:41:22;51.25;41.00;23.75
80861;PMS5003;71798;54.942;73.444;2024-01-11T14:43:48;65.00;51.00;31.00
80861;PMS5003;71798;54.942;73.444;2024-01-11T14:46:19;64.00;48.00;27.00
80861;PMS5003;71798;54.942;73.444;2024-01-11T14:48:45;59.50;45.00;26.50
80861;PMS5003;71798;54.942;73.444;2024-01-11T14:51:18;54.75;40.50;22.75
80861;PMS5003;71798;54.942;73.444;2024-01-11T14:53:44;55.50;42.50;24.25
80861;PMS5003;71798;54.942;73.444;2024-01-11T14:56:10;59.25;45.25;26.50
80861;PMS5003;71798;54.942;73.444;2024-01-11T14:58:37;65.00;51.00;30.00
80861;PMS5003;71798;54.942;73.444;2024-01-11T15:01:03;44.50;34.50;21.25
80861;PMS5003;71798;54.942;73.444;2024-01-11T15:03:30;67.00;51.25;31.50
80861;PMS5003;71798;54.942;73.444;2024-01-11T15:05:56;66.75;51.00;30.00
80861;PMS5003;71798;54.942;73.444;2024-01-11T15:08:22;52.50;40.75;25.50
80861;PMS5003;71798;54.942;73.444;2024-01-11T15:10:48;48.50;38.00;21.25
80861;PMS5003;71798;54.942;73.444;2024-01-11T15:13:14;63.50;48.75;29.00
80861;PMS5003;71798;54.942;73.444;2024-01-11T15:15:41;55.75;43.50;26.25
80861;PMS5003;71798;54.942;73.444;2024-01-11T15:18:07;61.75;47.25;27.50
80861;PMS5003;71798;54.942;73.444;2024-01-11T15:20:33;61.75;47.75;30.00
80861;PMS5003;71798;54.942;73.444;2024-01-11T15:22:59;59.25;46.25;27.50
80861;PMS5003;71798;54.942;73.444;2024-01-11T15:25:25;36.75;29.00;16.25
80861;PMS5003;71798;54.942;73.444;2024-01-11T15:27:55;62.25;47.00;27.75
80861;PMS5003;71798;54.942;73.444;2024-01-11T15:30:21;47.25;36.75;22.00
80861;PMS5003;71798;54.942;73.444;2024-01-11T15:32:47;53.00;41.25;24.00
80861;PMS5003;71798;54.942;73.444;2024-01-11T15:35:14;58.00;42.75;24.50
80861;PMS5003;71798;54.942;73.444;2024-01-11T15:37:40;62.50;47.50;27.00
80861;PMS5003;71798;54.942;73.444;2024-01-11T15:40:06;66.75;51.75;29.50
80861;PMS5003;71798;54.942;73.444;2024-01-11T15:42:36;56.75;43.50;24.50
80861;PMS5003;71798;54.942;73.444;2024-01-11T15:45:05;107.00;86.50;51.00